createdAt,value
2019-03-22T00:02:56.230Z,10.10
2019-03-22T00:06:57.195Z,10.50
2019-03-22T00:10:59.087Z,10.50
2019-03-22T00:14:59.963Z,10.30
2019-03-22T00:19:00.880Z,10.50
2019-03-22T00:23:01.964Z,10.20
2019-03-22T00:27:02.964Z,10.00
2019-03-22T00:31:04.058Z,10.00
2019-03-22T00:35:06.013Z,10.00
2019-03-22T00:39:06.933Z,10.00
2019-03-22T00:43:07.827Z,9.70
2019-03-22T00:47:08.759Z,10.00
2019-03-22T00:51:09.657Z,9.70
2019-03-22T00:55:10.798Z,9.80
2019-03-22T00:59:11.673Z,9.70
2019-03-22T01:03:12.565Z,9.80
2019-03-22T01:07:13.596Z,9.70
2019-03-22T01:11:14.588Z,9.30
2019-03-22T01:15:16.143Z,9.40
2019-03-22T01:19:17.060Z,9.20
2019-03-22T01:23:18.979Z,9.20
2019-03-22T01:27:19.978Z,9.60
2019-03-22T01:31:20.874Z,9.70
2019-03-22T01:35:21.771Z,9.80
2019-03-22T01:39:22.983Z,9.70
2019-03-22T01:43:25.834Z,9.50
2019-03-22T01:47:26.851Z,9.40
2019-03-22T01:51:28.054Z,9.20
2019-03-22T01:55:28.964Z,8.90
2019-03-22T01:59:29.855Z,9.00
2019-03-22T02:03:30.878Z,8.80
2019-03-22T02:07:31.797Z,8.60
2019-03-22T02:11:33.958Z,8.90
2019-03-22T02:15:34.913Z,9.00
2019-03-22T02:19:35.886Z,9.30
2019-03-22T02:23:36.788Z,9.20
2019-03-22T02:27:39.363Z,9.20
2019-03-22T02:31:40.267Z,9.10
2019-03-22T02:35:41.302Z,9.10
2019-03-22T02:39:42.452Z,9.00
2019-03-22T02:43:44.093Z,9.20
2019-03-22T02:47:45.287Z,9.10
2019-03-22T02:51:46.501Z,9.00
2019-03-22T02:55:47.439Z,9.10
2019-03-22T02:59:48.502Z,8.90
2019-03-22T03:03:49.513Z,9.20
2019-03-22T03:07:50.408Z,9.10
2019-03-22T03:11:51.261Z,8.80
2019-03-22T03:15:52.267Z,8.90
2019-03-22T03:19:53.154Z,9.10
2019-03-22T03:23:54.050Z,9.30
2019-03-22T03:27:55.031Z,9.30
2019-03-22T03:31:55.925Z,8.90
2019-03-22T03:35:57.010Z,9.00
2019-03-22T03:39:57.910Z,8.80
2019-03-22T03:43:58.950Z,8.50
2019-03-22T03:48:00.714Z,8.30
2019-03-22T03:52:01.656Z,8.20
2019-03-22T03:56:02.630Z,8.70
2019-03-22T04:00:06.801Z,8.70
2019-03-22T04:04:08.104Z,8.40
2019-03-22T04:08:09.056Z,8.50
2019-03-22T04:12:12.325Z,8.40
2019-03-22T04:16:13.468Z,8.40
2019-03-22T04:20:16.297Z,8.50
2019-03-22T04:24:19.109Z,8.60
2019-03-22T04:28:19.993Z,8.40
2019-03-22T04:32:20.975Z,8.10
2019-03-22T04:36:24.039Z,7.10
2019-03-22T04:40:28.591Z,7.70
2019-03-22T04:44:29.979Z,7.90
2019-03-22T04:48:34.573Z,8.50
2019-03-22T04:52:35.634Z,8.40
2019-03-22T04:56:37.769Z,8.20
2019-03-22T05:00:39.570Z,7.80
2019-03-22T05:04:42.347Z,8.50
2019-03-22T05:08:44.964Z,8.30
2019-03-22T05:12:48.304Z,8.60
2019-03-22T05:16:52.400Z,8.30
2019-03-22T05:20:53.556Z,8.50
2019-03-22T05:24:56.680Z,8.50
2019-03-22T05:28:58.311Z,7.80
2019-03-22T05:32:59.355Z,8.20
2019-03-22T05:37:00.515Z,8.40
2019-03-22T05:41:01.706Z,8.50
2019-03-22T05:45:05.178Z,8.60
2019-03-22T05:49:07.316Z,8.70
2019-03-22T05:53:08.296Z,8.70
2019-03-22T05:57:13.524Z,8.70
2019-03-22T06:01:11.922Z,8.80
2019-03-22T06:05:13.120Z,8.90
2019-03-22T06:09:14.263Z,9.00
2019-03-22T06:13:15.317Z,9.10
2019-03-22T06:17:16.217Z,9.20
2019-03-22T06:21:17.254Z,9.60
2019-03-22T06:25:18.143Z,9.80
2019-03-22T06:29:19.147Z,9.90
2019-03-22T06:33:20.011Z,10.00
2019-03-22T06:37:20.908Z,10.30
2019-03-22T06:41:21.820Z,10.10
2019-03-22T06:45:22.849Z,10.10
2019-03-22T06:49:23.894Z,10.30
2019-03-22T06:53:24.794Z,11.10
2019-03-22T06:57:25.704Z,11.70
2019-03-22T07:01:26.646Z,12.40
2019-03-22T07:05:27.532Z,13.20
2019-03-22T07:09:28.520Z,13.70
2019-03-22T07:13:29.504Z,14.00
2019-03-22T07:17:30.544Z,13.90
2019-03-22T07:21:31.546Z,13.60
2019-03-22T07:25:32.590Z,14.40
2019-03-22T07:29:33.564Z,14.90
2019-03-22T07:33:34.577Z,15.70
2019-03-22T07:37:35.590Z,16.30
2019-03-22T07:41:36.607Z,16.90
2019-03-22T07:45:37.898Z,17.20
2019-03-22T07:49:39.031Z,17.60
2019-03-22T07:53:39.941Z,18.00
2019-03-22T07:57:41.127Z,18.70
2019-03-22T08:01:42.026Z,19.30
2019-03-22T08:05:50.831Z,19.70
2019-03-22T08:09:45.997Z,20.00
2019-03-22T08:13:47.091Z,20.20
2019-03-22T08:17:47.966Z,20.00
2019-03-22T08:21:48.961Z,19.50
2019-03-22T08:25:50.219Z,19.50
2019-03-22T08:29:51.123Z,19.10
2019-03-22T08:33:52.045Z,19.40
2019-03-22T08:37:53.334Z,19.20
2019-03-22T08:41:54.308Z,19.30
2019-03-22T08:45:55.204Z,20.20
2019-03-22T08:49:56.213Z,19.90
2019-03-22T08:53:57.110Z,20.50
2019-03-22T08:57:58.217Z,20.30
2019-03-22T09:01:59.088Z,20.00
2019-03-22T09:06:00.053Z,20.10
2019-03-22T09:10:01.445Z,19.90
2019-03-22T09:14:02.533Z,20.60
2019-03-22T09:18:03.883Z,20.20
2019-03-22T09:22:05.029Z,19.50
2019-03-22T09:26:05.919Z,18.60
2019-03-22T09:30:10.427Z,19.40
2019-03-22T09:34:11.458Z,19.10
2019-03-22T09:38:13.405Z,20.30
2019-03-22T09:42:14.551Z,20.30
2019-03-22T09:46:15.530Z,19.60
2019-03-22T09:50:16.487Z,19.40
2019-03-22T09:54:17.495Z,17.80
2019-03-22T09:58:18.579Z,19.70
2019-03-22T10:02:19.565Z,19.50
2019-03-22T10:06:20.705Z,19.10
2019-03-22T10:10:21.623Z,19.80
2019-03-22T10:14:22.564Z,19.60
2019-03-22T10:18:23.456Z,18.30
2019-03-22T10:22:24.320Z,18.10
2019-03-22T10:26:25.203Z,19.30
2019-03-22T10:30:26.069Z,19.50
2019-03-22T10:34:27.215Z,18.90
2019-03-22T10:38:31.774Z,19.10
2019-03-22T10:42:31.120Z,20.30
2019-03-22T10:46:32.074Z,20.30
2019-03-22T10:50:33.146Z,20.60
2019-03-22T10:54:34.226Z,19.20
2019-03-22T10:58:35.279Z,20.60
2019-03-22T11:02:36.152Z,21.40
2019-03-22T11:06:37.044Z,20.80
2019-03-22T11:10:38.155Z,19.40
2019-03-22T11:14:39.174Z,20.40
2019-03-22T11:18:40.158Z,20.40
2019-03-22T11:22:41.367Z,20.90
2019-03-22T11:26:42.308Z,20.90
2019-03-22T11:30:43.357Z,20.40
2019-03-22T11:34:44.279Z,21.70
2019-03-22T11:38:45.265Z,22.10
2019-03-22T11:42:46.419Z,22.00
2019-03-22T11:46:47.307Z,21.90
2019-03-22T11:50:48.387Z,21.90
2019-03-22T11:54:49.246Z,21.60
2019-03-22T11:58:50.110Z,22.10
2019-03-22T12:02:51.094Z,22.30
2019-03-22T12:06:52.090Z,22.90
2019-03-22T12:10:53.201Z,22.90
2019-03-22T12:14:54.072Z,22.80
2019-03-22T12:18:54.962Z,22.30
2019-03-22T12:22:55.855Z,23.20
2019-03-22T12:26:56.839Z,22.10
2019-03-22T12:30:57.888Z,23.00
2019-03-22T12:34:59.172Z,22.80
2019-03-22T12:39:00.160Z,22.10
2019-03-22T12:43:01.087Z,22.90
2019-03-22T12:47:02.102Z,22.00
2019-03-22T12:51:03.169Z,23.40
2019-03-22T12:55:06.646Z,24.00
2019-03-22T12:59:07.558Z,22.60
2019-03-22T13:03:08.499Z,23.40
2019-03-22T13:07:09.457Z,23.40
2019-03-22T13:11:10.307Z,25.20
2019-03-22T13:15:12.162Z,26.20
2019-03-22T13:19:13.214Z,26.90
2019-03-22T13:23:16.326Z,27.30
2019-03-22T13:27:17.278Z,27.30
2019-03-22T13:31:18.162Z,27.50
2019-03-22T13:35:19.039Z,28.00
2019-03-22T13:39:20.024Z,27.60
2019-03-22T13:43:20.937Z,28.10
2019-03-22T13:47:22.306Z,24.10
2019-03-22T13:51:23.292Z,24.30
2019-03-22T13:55:24.342Z,23.50
2019-03-22T13:59:25.278Z,23.40
2019-03-22T14:03:26.168Z,23.30
2019-03-22T14:07:27.033Z,24.40
2019-03-22T14:11:28.006Z,24.30
2019-03-22T14:15:29.212Z,23.50
2019-03-22T14:19:30.027Z,24.40
2019-03-22T14:23:31.028Z,25.60
2019-03-22T14:27:32.028Z,25.40
2019-03-22T14:31:32.939Z,24.20
2019-03-22T14:35:33.956Z,23.40
2019-03-22T14:39:35.022Z,24.40
2019-03-22T14:43:35.994Z,25.30
2019-03-22T14:47:37.070Z,25.00
2019-03-22T14:51:37.982Z,25.80
2019-03-22T14:55:38.830Z,26.20
2019-03-22T14:59:40.254Z,25.50
2019-03-22T15:03:41.232Z,25.80
2019-03-22T15:07:42.208Z,24.90
2019-03-22T15:11:43.100Z,23.80
2019-03-22T15:15:48.837Z,23.40
2019-03-22T15:20:08.578Z,22.80
2019-03-22T15:24:28.025Z,22.80
2019-03-22T15:28:34.049Z,20.90
2019-03-22T15:32:38.776Z,22.40
2019-03-22T15:36:56.617Z,22.70
2019-03-22T15:40:57.730Z,22.40
2019-03-22T15:44:58.798Z,22.90
2019-03-22T15:49:02.270Z,23.40
2019-03-22T15:53:03.990Z,22.80
2019-03-22T15:57:05.186Z,22.20
2019-03-22T16:01:06.325Z,21.10
2019-03-22T16:05:07.886Z,22.40
2019-03-22T16:09:08.845Z,23.00
2019-03-22T16:13:09.726Z,22.60
2019-03-22T16:17:10.770Z,20.60
2019-03-22T16:21:12.410Z,19.70
2019-03-22T16:25:13.428Z,21.40
2019-03-22T16:29:14.660Z,20.80
2019-03-22T16:33:18.886Z,21.40
2019-03-22T16:37:19.917Z,22.60
2019-03-22T16:41:20.831Z,22.90
2019-03-22T16:45:34.735Z,22.20
2019-03-22T16:49:35.906Z,22.50
2019-03-22T16:53:36.825Z,22.80
2019-03-22T16:57:37.731Z,21.00
2019-03-22T17:01:38.895Z,21.60
2019-03-22T17:05:40.191Z,22.30
2019-03-22T17:09:41.182Z,22.60
2019-03-22T17:13:42.241Z,22.60
2019-03-22T17:17:43.447Z,22.90
2019-03-22T17:21:44.534Z,22.90
2019-03-22T17:25:45.421Z,22.70
2019-03-22T17:29:46.410Z,22.50
2019-03-22T17:33:47.300Z,22.40
2019-03-22T17:37:48.806Z,22.20
2019-03-22T17:41:49.929Z,21.80
2019-03-22T17:45:50.805Z,21.60
2019-03-22T17:49:51.674Z,21.20
2019-03-22T17:53:52.756Z,20.70
2019-03-22T17:57:53.941Z,20.30
2019-03-22T18:01:55.025Z,20.00
2019-03-22T18:05:55.918Z,19.90
2019-03-22T18:09:56.942Z,19.60
2019-03-22T18:13:57.950Z,19.10
2019-03-22T18:17:59.230Z,19.00
2019-03-22T18:22:00.101Z,18.80
2019-03-22T18:26:00.996Z,18.70
2019-03-22T18:30:07.190Z,18.50
2019-03-22T18:34:09.967Z,18.10
2019-03-22T18:38:11.137Z,17.80
2019-03-22T18:42:12.226Z,17.40
2019-03-22T18:46:13.275Z,17.00
2019-03-22T18:50:14.481Z,17.20
2019-03-22T18:54:15.375Z,17.40
2019-03-22T18:58:16.644Z,17.20
2019-03-22T19:02:17.735Z,16.90
2019-03-22T19:06:18.729Z,16.80
2019-03-22T19:10:19.779Z,16.80
2019-03-22T19:14:20.850Z,16.50
2019-03-22T19:18:21.726Z,16.30
2019-03-22T19:22:22.689Z,15.70
2019-03-22T19:26:23.955Z,15.70
2019-03-22T19:30:24.912Z,15.80
2019-03-22T19:34:25.945Z,15.80
2019-03-22T19:38:26.884Z,16.00
2019-03-22T19:42:27.950Z,15.90
2019-03-22T19:46:29.022Z,15.70
2019-03-22T19:50:29.975Z,15.00
2019-03-22T19:54:30.904Z,14.80
2019-03-22T19:58:32.414Z,15.10
2019-03-22T20:02:33.562Z,14.80
2019-03-22T20:06:34.750Z,14.50
2019-03-22T20:10:35.654Z,14.70
2019-03-22T20:14:36.675Z,14.00
2019-03-22T20:18:37.706Z,14.40
2019-03-22T20:22:40.614Z,14.00
2019-03-22T20:26:42.476Z,13.90
2019-03-22T20:30:44.307Z,14.10
2019-03-22T20:34:46.225Z,14.00
2019-03-22T20:38:47.868Z,14.20
2019-03-22T20:42:50.089Z,14.40
2019-03-22T20:46:51.919Z,14.30
2019-03-22T20:50:55.356Z,14.10
2019-03-22T20:54:58.530Z,13.80
2019-03-22T20:59:00.093Z,13.70
2019-03-22T21:03:01.385Z,13.60
2019-03-22T21:07:03.284Z,13.50
2019-03-22T21:11:04.578Z,13.40
2019-03-22T21:15:08.518Z,13.30
2019-03-22T21:19:10.195Z,13.20
2019-03-22T21:23:12.051Z,13.20
2019-03-22T21:27:33.568Z,12.90
2019-03-22T21:31:37.324Z,12.80
2019-03-22T21:35:39.254Z,12.70
2019-03-22T21:39:41.228Z,12.70
2019-03-22T21:43:43.198Z,12.80
2019-03-22T21:47:44.895Z,12.50
2019-03-22T21:51:46.843Z,12.30
2019-03-22T21:55:48.411Z,12.30
2019-03-22T21:59:49.582Z,12.40
2019-03-22T22:03:51.481Z,12.50
2019-03-22T22:07:53.195Z,12.60
2019-03-22T22:11:55.714Z,12.50
2019-03-22T22:16:01.166Z,12.10
2019-03-22T22:20:03.768Z,12.30
2019-03-22T22:24:05.657Z,12.20
2019-03-22T22:28:07.003Z,11.90
2019-03-22T22:32:08.526Z,11.80
2019-03-22T22:36:09.945Z,11.80
2019-03-22T22:40:13.573Z,11.80
2019-03-22T22:44:14.949Z,11.80
2019-03-22T22:48:18.489Z,11.70
2019-03-22T22:52:19.958Z,11.60
2019-03-22T22:56:21.100Z,11.80
2019-03-22T23:00:23.663Z,11.90
2019-03-22T23:04:25.416Z,11.50
2019-03-22T23:08:27.088Z,11.60
2019-03-22T23:12:30.152Z,11.80
2019-03-22T23:16:31.652Z,11.90
2019-03-22T23:20:33.097Z,11.80
2019-03-22T23:24:34.533Z,11.70
2019-03-22T23:28:36.450Z,11.40
2019-03-22T23:32:38.041Z,11.30
2019-03-22T23:36:39.672Z,11.00
2019-03-22T23:40:41.746Z,10.80
2019-03-22T23:44:43.108Z,11.20
2019-03-22T23:48:44.773Z,10.90
2019-03-22T23:52:46.331Z,10.60
2019-03-22T23:56:47.841Z,10.60
